sensor_id;sensor_type;location;lat;lon;timestamp;P1;durP1;ratioP1;P2;durP2;ratioP2
2706;SDS011;7819;48.046;7.642;2022-09-28T00:01:09;3.93;;;1.83;;
2706;SDS011;7819;48.046;7.642;2022-09-28T00:03:34;3.23;;;1.53;;
2706;SDS011;7819;48.046;7.642;2022-09-28T00:06:01;3.33;;;1.70;;
2706;SDS011;7819;48.046;7.642;2022-09-28T00:08:26;2.60;;;1.50;;
2706;SDS011;7819;48.046;7.642;2022-09-28T00:10:55;6.97;;;1.90;;
2706;SDS011;7819;48.046;7.642;2022-09-28T00:13:20;3.67;;;1.70;;
2706;SDS011;7819;48.046;7.642;2022-09-28T00:15:45;2.93;;;1.63;;
2706;SDS011;7819;48.046;7.642;2022-09-28T00:18:10;7.00;;;2.10;;
2706;SDS011;7819;48.046;7.642;2022-09-28T00:20:35;4.50;;;1.70;;
2706;SDS011;7819;48.046;7.642;2022-09-28T00:23:01;4.47;;;1.53;;
2706;SDS011;7819;48.046;7.642;2022-09-28T00:25:26;4.30;;;1.70;;
2706;SDS011;7819;48.046;7.642;2022-09-28T00:27:52;2.80;;;1.33;;
2706;SDS011;7819;48.046;7.642;2022-09-28T00:30:17;3.90;;;1.77;;
2706;SDS011;7819;48.046;7.642;2022-09-28T00:32:42;3.07;;;1.70;;
2706;SDS011;7819;48.046;7.642;2022-09-28T00:35:07;4.97;;;2.27;;
2706;SDS011;7819;48.046;7.642;2022-09-28T00:37:32;4.43;;;2.23;;
2706;SDS011;7819;48.046;7.642;2022-09-28T00:39:58;1.90;;;1.27;;
2706;SDS011;7819;48.046;7.642;2022-09-28T00:42:24;6.63;;;1.77;;
2706;SDS011;7819;48.046;7.642;2022-09-28T00:44:50;2.37;;;1.33;;
2706;SDS011;7819;48.046;7.642;2022-09-28T00:47:18;3.73;;;1.80;;
2706;SDS011;7819;48.046;7.642;2022-09-28T00:49:45;6.63;;;1.90;;
2706;SDS011;7819;48.046;7.642;2022-09-28T00:52:23;4.50;;;1.90;;
2706;SDS011;7819;48.046;7.642;2022-09-28T00:54:49;6.33;;;1.90;;
2706;SDS011;7819;48.046;7.642;2022-09-28T00:57:15;5.53;;;1.30;;
2706;SDS011;7819;48.046;7.642;2022-09-28T00:59:41;2.83;;;1.87;;
2706;SDS011;7819;48.046;7.642;2022-09-28T01:02:06;3.17;;;1.47;;
2706;SDS011;7819;48.046;7.642;2022-09-28T01:04:34;3.33;;;1.63;;
2706;SDS011;7819;48.046;7.642;2022-09-28T01:06:59;1.77;;;1.50;;
2706;SDS011;7819;48.046;7.642;2022-09-28T01:09:24;2.47;;;1.33;;
2706;SDS011;7819;48.046;7.642;2022-09-28T01:11:51;2.77;;;1.20;;
2706;SDS011;7819;48.046;7.642;2022-09-28T01:14:16;5.20;;;1.97;;
2706;SDS011;7819;48.046;7.642;2022-09-28T01:16:56;3.30;;;1.53;;
2706;SDS011;7819;48.046;7.642;2022-09-28T01:24:46;3.40;;;1.40;;
2706;SDS011;7819;48.046;7.642;2022-09-28T01:27:13;2.97;;;1.40;;
2706;SDS011;7819;48.046;7.642;2022-09-28T01:29:44;3.40;;;1.30;;
2706;SDS011;7819;48.046;7.642;2022-09-28T01:32:20;3.07;;;1.40;;
2706;SDS011;7819;48.046;7.642;2022-09-28T01:34:55;4.03;;;1.43;;
2706;SDS011;7819;48.046;7.642;2022-09-28T01:37:23;1.67;;;1.43;;
2706;SDS011;7819;48.046;7.642;2022-09-28T01:39:50;3.30;;;1.73;;
2706;SDS011;7819;48.046;7.642;2022-09-28T01:42:18;1.67;;;0.87;;
2706;SDS011;7819;48.046;7.642;2022-09-28T01:44:46;3.00;;;1.30;;
2706;SDS011;7819;48.046;7.642;2022-09-28T01:47:14;2.80;;;1.10;;
2706;SDS011;7819;48.046;7.642;2022-09-28T01:49:43;5.33;;;1.43;;
2706;SDS011;7819;48.046;7.642;2022-09-28T01:52:12;2.73;;;1.47;;
2706;SDS011;7819;48.046;7.642;2022-09-28T01:54:42;4.30;;;1.37;;
2706;SDS011;7819;48.046;7.642;2022-09-28T01:57:14;4.73;;;2.67;;
2706;SDS011;7819;48.046;7.642;2022-09-28T01:59:41;5.43;;;1.37;;
2706;SDS011;7819;48.046;7.642;2022-09-28T02:02:10;3.17;;;1.77;;
2706;SDS011;7819;48.046;7.642;2022-09-28T02:04:38;5.40;;;1.30;;
2706;SDS011;7819;48.046;7.642;2022-09-28T02:07:18;2.60;;;1.40;;
2706;SDS011;7819;48.046;7.642;2022-09-28T02:09:51;1.77;;;1.30;;
2706;SDS011;7819;48.046;7.642;2022-09-28T02:12:24;6.10;;;1.30;;
2706;SDS011;7819;48.046;7.642;2022-09-28T02:14:51;2.60;;;1.40;;
2706;SDS011;7819;48.046;7.642;2022-09-28T02:17:18;1.80;;;1.40;;
2706;SDS011;7819;48.046;7.642;2022-09-28T02:19:44;2.50;;;1.57;;
2706;SDS011;7819;48.046;7.642;2022-09-28T02:27:16;3.47;;;1.20;;
2706;SDS011;7819;48.046;7.642;2022-09-28T02:29:42;4.80;;;1.50;;
2706;SDS011;7819;48.046;7.642;2022-09-28T02:32:08;2.97;;;1.37;;
2706;SDS011;7819;48.046;7.642;2022-09-28T02:34:33;1.90;;;1.60;;
2706;SDS011;7819;48.046;7.642;2022-09-28T02:36:59;2.70;;;1.40;;
2706;SDS011;7819;48.046;7.642;2022-09-28T02:39:25;5.37;;;1.50;;
2706;SDS011;7819;48.046;7.642;2022-09-28T02:41:54;2.17;;;1.30;;
2706;SDS011;7819;48.046;7.642;2022-09-28T02:44:28;2.37;;;1.27;;
2706;SDS011;7819;48.046;7.642;2022-09-28T02:54:48;3.37;;;1.13;;
2706;SDS011;7819;48.046;7.642;2022-09-28T02:57:28;2.17;;;1.10;;
2706;SDS011;7819;48.046;7.642;2022-09-28T03:07:22;4.72;;;1.40;;
2706;SDS011;7819;48.046;7.642;2022-09-28T03:10:02;2.40;;;0.87;;
2706;SDS011;7819;48.046;7.642;2022-09-28T03:12:29;1.63;;;1.10;;
2706;SDS011;7819;48.046;7.642;2022-09-28T03:17:50;2.33;;;0.83;;
2706;SDS011;7819;48.046;7.642;2022-09-28T03:20:15;1.20;;;0.83;;
2706;SDS011;7819;48.046;7.642;2022-09-28T03:22:40;4.20;;;1.00;;
2706;SDS011;7819;48.046;7.642;2022-09-28T03:25:06;0.90;;;0.60;;
2706;SDS011;7819;48.046;7.642;2022-09-28T03:27:31;3.80;;;0.60;;
2706;SDS011;7819;48.046;7.642;2022-09-28T03:29:56;2.60;;;0.97;;
2706;SDS011;7819;48.046;7.642;2022-09-28T03:32:22;2.20;;;1.23;;
2706;SDS011;7819;48.046;7.642;2022-09-28T03:34:47;3.63;;;1.07;;
2706;SDS011;7819;48.046;7.642;2022-09-28T03:37:12;1.00;;;0.70;;
2706;SDS011;7819;48.046;7.642;2022-09-28T03:39:37;4.43;;;0.80;;
2706;SDS011;7819;48.046;7.642;2022-09-28T03:42:03;4.33;;;1.07;;
2706;SDS011;7819;48.046;7.642;2022-09-28T03:44:28;0.90;;;0.70;;
2706;SDS011;7819;48.046;7.642;2022-09-28T03:46:53;1.40;;;1.00;;
2706;SDS011;7819;48.046;7.642;2022-09-28T03:49:18;1.30;;;0.83;;
2706;SDS011;7819;48.046;7.642;2022-09-28T03:51:44;1.50;;;1.10;;
2706;SDS011;7819;48.046;7.642;2022-09-28T03:54:09;0.80;;;0.70;;
2706;SDS011;7819;48.046;7.642;2022-09-28T03:56:34;0.93;;;0.50;;
2706;SDS011;7819;48.046;7.642;2022-09-28T03:59:01;1.53;;;0.60;;
2706;SDS011;7819;48.046;7.642;2022-09-28T04:01:26;1.20;;;0.73;;
2706;SDS011;7819;48.046;7.642;2022-09-28T04:03:52;1.30;;;1.00;;
2706;SDS011;7819;48.046;7.642;2022-09-28T04:06:19;1.40;;;0.90;;
2706;SDS011;7819;48.046;7.642;2022-09-28T04:08:44;3.17;;;0.83;;
2706;SDS011;7819;48.046;7.642;2022-09-28T04:11:09;1.55;;;0.88;;
2706;SDS011;7819;48.046;7.642;2022-09-28T04:13:35;0.97;;;0.60;;
2706;SDS011;7819;48.046;7.642;2022-09-28T04:16:01;0.80;;;0.63;;
2706;SDS011;7819;48.046;7.642;2022-09-28T04:18:26;1.10;;;0.70;;
2706;SDS011;7819;48.046;7.642;2022-09-28T04:21:01;1.70;;;0.67;;
2706;SDS011;7819;48.046;7.642;2022-09-28T04:23:27;2.40;;;0.80;;
2706;SDS011;7819;48.046;7.642;2022-09-28T04:25:52;1.33;;;0.87;;
2706;SDS011;7819;48.046;7.642;2022-09-28T04:28:18;1.13;;;0.70;;
2706;SDS011;7819;48.046;7.642;2022-09-28T04:31:02;3.23;;;1.23;;
2706;SDS011;7819;48.046;7.642;2022-09-28T04:33:27;1.07;;;0.80;;
2706;SDS011;7819;48.046;7.642;2022-09-28T04:35:53;1.47;;;0.90;;
2706;SDS011;7819;48.046;7.642;2022-09-28T04:38:18;1.67;;;1.17;;
2706;SDS011;7819;48.046;7.642;2022-09-28T04:40:43;4.05;;;1.05;;
2706;SDS011;7819;48.046;7.642;2022-09-28T04:43:08;2.13;;;0.60;;
2706;SDS011;7819;48.046;7.642;2022-09-28T04:45:33;0.70;;;0.53;;
2706;SDS011;7819;48.046;7.642;2022-09-28T04:47:58;1.63;;;0.87;;
2706;SDS011;7819;48.046;7.642;2022-09-28T04:50:23;0.90;;;0.70;;
2706;SDS011;7819;48.046;7.642;2022-09-28T04:52:49;0.80;;;0.70;;
2706;SDS011;7819;48.046;7.642;2022-09-28T04:55:14;1.67;;;1.50;;
2706;SDS011;7819;48.046;7.642;2022-09-28T04:57:39;2.40;;;1.07;;
2706;SDS011;7819;48.046;7.642;2022-09-28T05:00:05;1.37;;;0.70;;
2706;SDS011;7819;48.046;7.642;2022-09-28T05:02:30;1.40;;;0.70;;
2706;SDS011;7819;48.046;7.642;2022-09-28T05:04:56;3.77;;;1.00;;
2706;SDS011;7819;48.046;7.642;2022-09-28T05:07:22;0.77;;;0.63;;
2706;SDS011;7819;48.046;7.642;2022-09-28T05:09:48;1.10;;;1.00;;
2706;SDS011;7819;48.046;7.642;2022-09-28T05:12:13;1.57;;;0.90;;
2706;SDS011;7819;48.046;7.642;2022-09-28T05:14:38;1.50;;;0.83;;
2706;SDS011;7819;48.046;7.642;2022-09-28T05:17:03;1.80;;;0.90;;
2706;SDS011;7819;48.046;7.642;2022-09-28T05:19:28;1.10;;;0.80;;
2706;SDS011;7819;48.046;7.642;2022-09-28T05:21:54;0.90;;;0.60;;
2706;SDS011;7819;48.046;7.642;2022-09-28T05:24:21;3.63;;;1.07;;
2706;SDS011;7819;48.046;7.642;2022-09-28T05:26:47;1.93;;;1.07;;
2706;SDS011;7819;48.046;7.642;2022-09-28T05:29:12;4.22;;;1.30;;
2706;SDS011;7819;48.046;7.642;2022-09-28T05:31:37;2.60;;;0.90;;
2706;SDS011;7819;48.046;7.642;2022-09-28T05:34:02;2.42;;;1.00;;
2706;SDS011;7819;48.046;7.642;2022-09-28T05:36:27;1.43;;;0.80;;
2706;SDS011;7819;48.046;7.642;2022-09-28T05:38:54;2.03;;;0.70;;
2706;SDS011;7819;48.046;7.642;2022-09-28T05:41:19;1.63;;;0.90;;
2706;SDS011;7819;48.046;7.642;2022-09-28T05:43:44;1.17;;;1.00;;
2706;SDS011;7819;48.046;7.642;2022-09-28T05:46:10;2.27;;;1.70;;
2706;SDS011;7819;48.046;7.642;2022-09-28T05:48:35;3.03;;;1.40;;
2706;SDS011;7819;48.046;7.642;2022-09-28T05:51:00;2.63;;;1.47;;
2706;SDS011;7819;48.046;7.642;2022-09-28T05:53:25;1.43;;;1.33;;
2706;SDS011;7819;48.046;7.642;2022-09-28T05:55:50;2.23;;;1.63;;
2706;SDS011;7819;48.046;7.642;2022-09-28T05:58:16;1.83;;;1.40;;
2706;SDS011;7819;48.046;7.642;2022-09-28T06:00:41;2.03;;;1.33;;
2706;SDS011;7819;48.046;7.642;2022-09-28T06:03:08;3.07;;;1.50;;
2706;SDS011;7819;48.046;7.642;2022-09-28T06:05:34;1.60;;;1.50;;
2706;SDS011;7819;48.046;7.642;2022-09-28T06:08:00;4.07;;;1.90;;
2706;SDS011;7819;48.046;7.642;2022-09-28T06:10:26;2.27;;;1.50;;
2706;SDS011;7819;48.046;7.642;2022-09-28T06:12:54;1.73;;;1.40;;
2706;SDS011;7819;48.046;7.642;2022-09-28T06:15:21;2.83;;;2.17;;
2706;SDS011;7819;48.046;7.642;2022-09-28T06:17:46;4.00;;;3.60;;
2706;SDS011;7819;48.046;7.642;2022-09-28T06:20:11;4.20;;;3.80;;
2706;SDS011;7819;48.046;7.642;2022-09-28T06:22:37;4.33;;;3.00;;
2706;SDS011;7819;48.046;7.642;2022-09-28T06:25:02;6.20;;;4.70;;
2706;SDS011;7819;48.046;7.642;2022-09-28T06:27:28;2.43;;;1.20;;
2706;SDS011;7819;48.046;7.642;2022-09-28T06:29:53;2.20;;;0.90;;
2706;SDS011;7819;48.046;7.642;2022-09-28T06:32:18;1.00;;;0.90;;
2706;SDS011;7819;48.046;7.642;2022-09-28T06:34:43;2.33;;;1.07;;
2706;SDS011;7819;48.046;7.642;2022-09-28T06:37:08;0.90;;;0.70;;
2706;SDS011;7819;48.046;7.642;2022-09-28T06:39:34;0.95;;;0.85;;
2706;SDS011;7819;48.046;7.642;2022-09-28T06:41:59;1.43;;;1.00;;
2706;SDS011;7819;48.046;7.642;2022-09-28T06:44:27;1.20;;;0.80;;
2706;SDS011;7819;48.046;7.642;2022-09-28T06:46:53;1.50;;;0.90;;
2706;SDS011;7819;48.046;7.642;2022-09-28T06:49:19;0.93;;;0.83;;
2706;SDS011;7819;48.046;7.642;2022-09-28T06:51:45;1.50;;;1.27;;
2706;SDS011;7819;48.046;7.642;2022-09-28T06:54:10;2.30;;;1.80;;
2706;SDS011;7819;48.046;7.642;2022-09-28T06:56:35;1.47;;;1.17;;
2706;SDS011;7819;48.046;7.642;2022-09-28T06:59:01;4.87;;;2.77;;
2706;SDS011;7819;48.046;7.642;2022-09-28T07:01:26;3.80;;;2.72;;
2706;SDS011;7819;48.046;7.642;2022-09-28T07:03:51;1.37;;;0.80;;
2706;SDS011;7819;48.046;7.642;2022-09-28T07:06:16;2.27;;;1.00;;
2706;SDS011;7819;48.046;7.642;2022-09-28T07:08:42;2.60;;;1.10;;
2706;SDS011;7819;48.046;7.642;2022-09-28T07:11:07;2.50;;;2.30;;
2706;SDS011;7819;48.046;7.642;2022-09-28T07:13:32;2.20;;;2.00;;
2706;SDS011;7819;48.046;7.642;2022-09-28T07:15:58;2.43;;;2.23;;
2706;SDS011;7819;48.046;7.642;2022-09-28T07:18:23;3.00;;;2.07;;
2706;SDS011;7819;48.046;7.642;2022-09-28T07:20:49;2.57;;;2.30;;
2706;SDS011;7819;48.046;7.642;2022-09-28T07:23:14;2.23;;;2.03;;
2706;SDS011;7819;48.046;7.642;2022-09-28T07:25:39;2.50;;;2.30;;
2706;SDS011;7819;48.046;7.642;2022-09-28T07:28:09;2.10;;;1.90;;
2706;SDS011;7819;48.046;7.642;2022-09-28T07:30:34;1.63;;;1.33;;
2706;SDS011;7819;48.046;7.642;2022-09-28T07:33:00;2.23;;;1.50;;
2706;SDS011;7819;48.046;7.642;2022-09-28T07:35:25;3.83;;;1.30;;
2706;SDS011;7819;48.046;7.642;2022-09-28T07:38:01;1.80;;;1.40;;
2706;SDS011;7819;48.046;7.642;2022-09-28T07:40:27;3.33;;;1.53;;
2706;SDS011;7819;48.046;7.642;2022-09-28T07:43:11;1.87;;;1.60;;
2706;SDS011;7819;48.046;7.642;2022-09-28T07:45:37;4.47;;;2.13;;
2706;SDS011;7819;48.046;7.642;2022-09-28T07:48:02;2.47;;;1.90;;
2706;SDS011;7819;48.046;7.642;2022-09-28T07:50:28;3.03;;;2.17;;
2706;SDS011;7819;48.046;7.642;2022-09-28T07:52:54;1.20;;;1.00;;
2706;SDS011;7819;48.046;7.642;2022-09-28T07:55:19;2.50;;;1.30;;
2706;SDS011;7819;48.046;7.642;2022-09-28T07:57:45;1.80;;;1.50;;
2706;SDS011;7819;48.046;7.642;2022-09-28T08:00:12;3.67;;;1.60;;
2706;SDS011;7819;48.046;7.642;2022-09-28T08:02:38;1.47;;;1.10;;
2706;SDS011;7819;48.046;7.642;2022-09-28T08:05:03;1.60;;;1.30;;
2706;SDS011;7819;48.046;7.642;2022-09-28T08:07:28;1.93;;;1.73;;
2706;SDS011;7819;48.046;7.642;2022-09-28T08:09:54;2.63;;;1.43;;
2706;SDS011;7819;48.046;7.642;2022-09-28T08:12:19;1.93;;;1.50;;
2706;SDS011;7819;48.046;7.642;2022-09-28T08:14:45;0.97;;;0.90;;
2706;SDS011;7819;48.046;7.642;2022-09-28T08:17:10;1.60;;;1.03;;
2706;SDS011;7819;48.046;7.642;2022-09-28T08:19:35;2.07;;;1.47;;
2706;SDS011;7819;48.046;7.642;2022-09-28T08:22:19;3.77;;;1.47;;
2706;SDS011;7819;48.046;7.642;2022-09-28T08:24:45;4.10;;;3.80;;
2706;SDS011;7819;48.046;7.642;2022-09-28T08:27:11;2.33;;;1.90;;
2706;SDS011;7819;48.046;7.642;2022-09-28T08:29:36;2.57;;;2.23;;
2706;SDS011;7819;48.046;7.642;2022-09-28T08:32:02;2.10;;;2.00;;
2706;SDS011;7819;48.046;7.642;2022-09-28T08:34:28;1.67;;;1.37;;
2706;SDS011;7819;48.046;7.642;2022-09-28T08:36:56;2.60;;;1.50;;
2706;SDS011;7819;48.046;7.642;2022-09-28T08:39:21;2.30;;;1.57;;
2706;SDS011;7819;48.046;7.642;2022-09-28T08:44:15;4.47;;;2.83;;
2706;SDS011;7819;48.046;7.642;2022-09-28T08:46:48;2.63;;;1.80;;
2706;SDS011;7819;48.046;7.642;2022-09-28T08:51:51;3.40;;;2.03;;
2706;SDS011;7819;48.046;7.642;2022-09-28T08:56:58;4.87;;;3.70;;
2706;SDS011;7819;48.046;7.642;2022-09-28T08:59:26;4.37;;;3.10;;
2706;SDS011;7819;48.046;7.642;2022-09-28T09:01:54;5.03;;;4.63;;
2706;SDS011;7819;48.046;7.642;2022-09-28T09:04:20;5.47;;;4.97;;
2706;SDS011;7819;48.046;7.642;2022-09-28T09:09:17;5.32;;;3.03;;
2706;SDS011;7819;48.046;7.642;2022-09-28T09:19:32;2.17;;;1.40;;
2706;SDS011;7819;48.046;7.642;2022-09-28T09:22:15;3.10;;;1.50;;
2706;SDS011;7819;48.046;7.642;2022-09-28T09:24:50;2.60;;;1.50;;
2706;SDS011;7819;48.046;7.642;2022-09-28T09:30:05;3.80;;;2.40;;
2706;SDS011;7819;48.046;7.642;2022-09-28T09:40:22;1.90;;;1.70;;
2706;SDS011;7819;48.046;7.642;2022-09-28T09:48:03;2.77;;;1.70;;
2706;SDS011;7819;48.046;7.642;2022-09-28T09:50:36;2.37;;;1.80;;
2706;SDS011;7819;48.046;7.642;2022-09-28T09:55:30;3.25;;;2.50;;
2706;SDS011;7819;48.046;7.642;2022-09-28T09:58:01;2.27;;;1.80;;
2706;SDS011;7819;48.046;7.642;2022-09-28T10:00:28;4.03;;;2.30;;
2706;SDS011;7819;48.046;7.642;2022-09-28T10:02:53;1.80;;;1.50;;
2706;SDS011;7819;48.046;7.642;2022-09-28T10:05:25;1.70;;;1.33;;
2706;SDS011;7819;48.046;7.642;2022-09-28T10:08:02;5.20;;;2.20;;
2706;SDS011;7819;48.046;7.642;2022-09-28T10:10:29;2.27;;;1.70;;
2706;SDS011;7819;48.046;7.642;2022-09-28T10:12:54;1.97;;;1.60;;
2706;SDS011;7819;48.046;7.642;2022-09-28T10:15:27;2.00;;;1.20;;
2706;SDS011;7819;48.046;7.642;2022-09-28T10:17:52;1.63;;;1.27;;
2706;SDS011;7819;48.046;7.642;2022-09-28T10:20:19;2.40;;;1.90;;
2706;SDS011;7819;48.046;7.642;2022-09-28T10:22:44;1.97;;;1.10;;
2706;SDS011;7819;48.046;7.642;2022-09-28T10:25:10;2.50;;;1.77;;
2706;SDS011;7819;48.046;7.642;2022-09-28T10:27:37;4.07;;;1.47;;
2706;SDS011;7819;48.046;7.642;2022-09-28T10:30:23;3.23;;;1.23;;
2706;SDS011;7819;48.046;7.642;2022-09-28T10:32:50;1.73;;;1.13;;
2706;SDS011;7819;48.046;7.642;2022-09-28T10:37:48;6.50;;;3.30;;
2706;SDS011;7819;48.046;7.642;2022-09-28T10:43:01;3.60;;;2.63;;
2706;SDS011;7819;48.046;7.642;2022-09-28T10:45:26;4.27;;;1.30;;
2706;SDS011;7819;48.046;7.642;2022-09-28T10:47:55;2.00;;;1.53;;
2706;SDS011;7819;48.046;7.642;2022-09-28T10:50:24;3.60;;;2.10;;
2706;SDS011;7819;48.046;7.642;2022-09-28T10:52:50;2.47;;;1.53;;
2706;SDS011;7819;48.046;7.642;2022-09-28T10:55:23;2.50;;;2.00;;
2706;SDS011;7819;48.046;7.642;2022-09-28T10:57:48;2.07;;;1.87;;
2706;SDS011;7819;48.046;7.642;2022-09-28T11:00:59;1.80;;;1.40;;
2706;SDS011;7819;48.046;7.642;2022-09-28T11:03:00;1.47;;;0.80;;
2706;SDS011;7819;48.046;7.642;2022-09-28T11:05:26;2.50;;;1.20;;
2706;SDS011;7819;48.046;7.642;2022-09-28T11:07:54;1.57;;;1.47;;
2706;SDS011;7819;48.046;7.642;2022-09-28T11:10:24;1.77;;;0.87;;
2706;SDS011;7819;48.046;7.642;2022-09-28T11:12:50;1.60;;;1.30;;
2706;SDS011;7819;48.046;7.642;2022-09-28T11:15:17;1.50;;;1.00;;
2706;SDS011;7819;48.046;7.642;2022-09-28T11:17:43;1.70;;;1.07;;
2706;SDS011;7819;48.046;7.642;2022-09-28T11:22:45;3.83;;;3.53;;
2706;SDS011;7819;48.046;7.642;2022-09-28T11:27:40;2.43;;;1.50;;
2706;SDS011;7819;48.046;7.642;2022-09-28T11:30:16;1.53;;;1.23;;
2706;SDS011;7819;48.046;7.642;2022-09-28T11:32:44;1.50;;;1.00;;
2706;SDS011;7819;48.046;7.642;2022-09-28T11:35:15;1.20;;;0.87;;
2706;SDS011;7819;48.046;7.642;2022-09-28T11:37:44;1.53;;;1.30;;
2706;SDS011;7819;48.046;7.642;2022-09-28T11:48:01;3.92;;;1.42;;
2706;SDS011;7819;48.046;7.642;2022-09-28T11:50:30;1.87;;;1.23;;
2706;SDS011;7819;48.046;7.642;2022-09-28T11:53:07;2.90;;;1.43;;
2706;SDS011;7819;48.046;7.642;2022-09-28T11:55:46;2.57;;;1.37;;
2706;SDS011;7819;48.046;7.642;2022-09-28T11:58:16;1.50;;;1.40;;
2706;SDS011;7819;48.046;7.642;2022-09-28T12:00:43;2.13;;;1.30;;
2706;SDS011;7819;48.046;7.642;2022-09-28T12:03:15;1.80;;;1.40;;
2706;SDS011;7819;48.046;7.642;2022-09-28T12:05:55;1.30;;;1.10;;
2706;SDS011;7819;48.046;7.642;2022-09-28T12:08:25;1.70;;;1.40;;
2706;SDS011;7819;48.046;7.642;2022-09-28T12:11:03;3.20;;;1.90;;
2706;SDS011;7819;48.046;7.642;2022-09-28T12:13:32;1.70;;;1.40;;
2706;SDS011;7819;48.046;7.642;2022-09-28T12:16:03;2.87;;;1.80;;
2706;SDS011;7819;48.046;7.642;2022-09-28T12:18:36;3.50;;;2.00;;
2706;SDS011;7819;48.046;7.642;2022-09-28T12:21:24;2.77;;;1.80;;
2706;SDS011;7819;48.046;7.642;2022-09-28T12:23:52;1.63;;;1.33;;
2706;SDS011;7819;48.046;7.642;2022-09-28T12:26:27;3.00;;;1.63;;
2706;SDS011;7819;48.046;7.642;2022-09-28T12:28:54;2.07;;;1.73;;
2706;SDS011;7819;48.046;7.642;2022-09-28T12:33:49;2.03;;;1.57;;
2706;SDS011;7819;48.046;7.642;2022-09-28T12:39:06;4.70;;;2.00;;
2706;SDS011;7819;48.046;7.642;2022-09-28T12:44:45;3.40;;;2.80;;
2706;SDS011;7819;48.046;7.642;2022-09-28T12:53:18;1.43;;;1.13;;
2706;SDS011;7819;48.046;7.642;2022-09-28T12:55:28;4.80;;;1.77;;
2706;SDS011;7819;48.046;7.642;2022-09-28T12:57:57;1.70;;;1.40;;
2706;SDS011;7819;48.046;7.642;2022-09-28T13:00:24;2.83;;;1.73;;
2706;SDS011;7819;48.046;7.642;2022-09-28T13:08:03;5.07;;;2.70;;
2706;SDS011;7819;48.046;7.642;2022-09-28T13:10:46;5.43;;;1.90;;
2706;SDS011;7819;48.046;7.642;2022-09-28T13:25:34;2.00;;;1.80;;
2706;SDS011;7819;48.046;7.642;2022-09-28T13:28:01;3.43;;;1.67;;
2706;SDS011;7819;48.046;7.642;2022-09-28T13:30:27;2.63;;;1.37;;
2706;SDS011;7819;48.046;7.642;2022-09-28T13:32:54;4.17;;;1.80;;
2706;SDS011;7819;48.046;7.642;2022-09-28T13:35:20;4.03;;;3.40;;
2706;SDS011;7819;48.046;7.642;2022-09-28T13:37:46;6.10;;;4.33;;
2706;SDS011;7819;48.046;7.642;2022-09-28T13:40:12;3.40;;;2.67;;
2706;SDS011;7819;48.046;7.642;2022-09-28T13:56:03;3.50;;;2.83;;
2706;SDS011;7819;48.046;7.642;2022-09-28T13:58:37;2.00;;;1.70;;
2706;SDS011;7819;48.046;7.642;2022-09-28T14:01:07;4.17;;;2.00;;
2706;SDS011;7819;48.046;7.642;2022-09-28T14:16:24;3.03;;;2.77;;
2706;SDS011;7819;48.046;7.642;2022-09-28T14:18:54;1.80;;;1.70;;
2706;SDS011;7819;48.046;7.642;2022-09-28T14:29:22;3.77;;;3.47;;
2706;SDS011;7819;48.046;7.642;2022-09-28T14:31:52;4.00;;;3.00;;
2706;SDS011;7819;48.046;7.642;2022-09-28T14:34:22;10.87;;;7.50;;
2706;SDS011;7819;48.046;7.642;2022-09-28T14:36:49;5.80;;;3.80;;
2706;SDS011;7819;48.046;7.642;2022-09-28T14:39:32;4.33;;;3.50;;
2706;SDS011;7819;48.046;7.642;2022-09-28T14:42:24;11.80;;;8.90;;
2706;SDS011;7819;48.046;7.642;2022-09-28T14:52:45;4.13;;;2.10;;
2706;SDS011;7819;48.046;7.642;2022-09-28T14:55:12;3.70;;;3.00;;
2706;SDS011;7819;48.046;7.642;2022-09-28T14:57:39;4.77;;;3.70;;
2706;SDS011;7819;48.046;7.642;2022-09-28T15:00:24;3.97;;;2.70;;
2706;SDS011;7819;48.046;7.642;2022-09-28T15:02:50;2.90;;;2.07;;
2706;SDS011;7819;48.046;7.642;2022-09-28T15:05:18;9.47;;;6.60;;
2706;SDS011;7819;48.046;7.642;2022-09-28T15:07:47;3.00;;;2.73;;
2706;SDS011;7819;48.046;7.642;2022-09-28T15:10:24;3.30;;;3.00;;
2706;SDS011;7819;48.046;7.642;2022-09-28T15:12:50;2.40;;;2.20;;
2706;SDS011;7819;48.046;7.642;2022-09-28T15:15:29;5.03;;;2.70;;
2706;SDS011;7819;48.046;7.642;2022-09-28T15:20:28;2.43;;;2.23;;
2706;SDS011;7819;48.046;7.642;2022-09-28T15:22:54;3.47;;;2.00;;
2706;SDS011;7819;48.046;7.642;2022-09-28T15:25:24;3.37;;;2.37;;
2706;SDS011;7819;48.046;7.642;2022-09-28T15:27:51;7.10;;;4.37;;
2706;SDS011;7819;48.046;7.642;2022-09-28T15:32:48;5.13;;;3.23;;
2706;SDS011;7819;48.046;7.642;2022-09-28T15:35:17;3.97;;;2.60;;
2706;SDS011;7819;48.046;7.642;2022-09-28T15:37:44;2.63;;;2.33;;
2706;SDS011;7819;48.046;7.642;2022-09-28T15:40:11;2.00;;;1.80;;
2706;SDS011;7819;48.046;7.642;2022-09-28T15:42:37;4.80;;;2.17;;
2706;SDS011;7819;48.046;7.642;2022-09-28T15:45:04;3.03;;;1.70;;
2706;SDS011;7819;48.046;7.642;2022-09-28T15:47:38;2.50;;;1.93;;
2706;SDS011;7819;48.046;7.642;2022-09-28T15:50:05;2.20;;;2.03;;
2706;SDS011;7819;48.046;7.642;2022-09-28T15:52:37;2.90;;;1.67;;
2706;SDS011;7819;48.046;7.642;2022-09-28T15:55:04;5.53;;;4.83;;
2706;SDS011;7819;48.046;7.642;2022-09-28T15:57:39;6.10;;;4.00;;
2706;SDS011;7819;48.046;7.642;2022-09-28T16:00:26;8.10;;;5.80;;
2706;SDS011;7819;48.046;7.642;2022-09-28T16:03:09;5.13;;;4.37;;
2706;SDS011;7819;48.046;7.642;2022-09-28T16:05:42;4.87;;;3.60;;
2706;SDS011;7819;48.046;7.642;2022-09-28T16:08:17;4.80;;;3.57;;
2706;SDS011;7819;48.046;7.642;2022-09-28T16:13:17;7.17;;;5.90;;
2706;SDS011;7819;48.046;7.642;2022-09-28T16:15:44;4.83;;;4.03;;
2706;SDS011;7819;48.046;7.642;2022-09-28T16:20:37;2.60;;;2.40;;
2706;SDS011;7819;48.046;7.642;2022-09-28T16:25:42;8.60;;;7.80;;
2706;SDS011;7819;48.046;7.642;2022-09-28T16:28:16;15.03;;;13.30;;
2706;SDS011;7819;48.046;7.642;2022-09-28T16:31:34;5.20;;;4.80;;
2706;SDS011;7819;48.046;7.642;2022-09-28T16:33:54;3.20;;;2.90;;
2706;SDS011;7819;48.046;7.642;2022-09-28T16:36:19;6.00;;;4.83;;
2706;SDS011;7819;48.046;7.642;2022-09-28T16:38:46;3.90;;;3.27;;
2706;SDS011;7819;48.046;7.642;2022-09-28T16:41:12;7.13;;;5.70;;
2706;SDS011;7819;48.046;7.642;2022-09-28T16:43:38;5.60;;;4.80;;
2706;SDS011;7819;48.046;7.642;2022-09-28T16:46:08;7.00;;;5.63;;
2706;SDS011;7819;48.046;7.642;2022-09-28T16:48:35;7.67;;;5.80;;
2706;SDS011;7819;48.046;7.642;2022-09-28T16:51:03;10.70;;;7.80;;
2706;SDS011;7819;48.046;7.642;2022-09-28T16:53:28;7.73;;;4.40;;
2706;SDS011;7819;48.046;7.642;2022-09-28T16:56:12;11.20;;;7.33;;
2706;SDS011;7819;48.046;7.642;2022-09-28T16:58:37;9.53;;;8.67;;
2706;SDS011;7819;48.046;7.642;2022-09-28T17:01:03;4.60;;;4.20;;
2706;SDS011;7819;48.046;7.642;2022-09-28T17:03:28;6.83;;;5.47;;
2706;SDS011;7819;48.046;7.642;2022-09-28T17:05:54;6.70;;;6.00;;
2706;SDS011;7819;48.046;7.642;2022-09-28T17:08:20;4.27;;;3.87;;
2706;SDS011;7819;48.046;7.642;2022-09-28T17:10:48;5.53;;;4.07;;
2706;SDS011;7819;48.046;7.642;2022-09-28T17:13:16;5.10;;;3.50;;
2706;SDS011;7819;48.046;7.642;2022-09-28T17:15:41;5.93;;;4.10;;
2706;SDS011;7819;48.046;7.642;2022-09-28T17:18:08;7.50;;;6.47;;
2706;SDS011;7819;48.046;7.642;2022-09-28T17:20:34;5.83;;;4.73;;
2706;SDS011;7819;48.046;7.642;2022-09-28T17:23:01;4.87;;;4.37;;
2706;SDS011;7819;48.046;7.642;2022-09-28T17:25:26;3.53;;;3.23;;
2706;SDS011;7819;48.046;7.642;2022-09-28T17:27:53;5.10;;;3.63;;
2706;SDS011;7819;48.046;7.642;2022-09-28T17:30:19;2.80;;;2.50;;
2706;SDS011;7819;48.046;7.642;2022-09-28T17:32:44;6.00;;;4.73;;
2706;SDS011;7819;48.046;7.642;2022-09-28T17:35:11;9.60;;;8.70;;
2706;SDS011;7819;48.046;7.642;2022-09-28T17:37:36;5.50;;;4.90;;
2706;SDS011;7819;48.046;7.642;2022-09-28T17:40:09;5.37;;;4.43;;
2706;SDS011;7819;48.046;7.642;2022-09-28T17:42:37;5.00;;;4.30;;
2706;SDS011;7819;48.046;7.642;2022-09-28T17:45:02;4.37;;;3.93;;
2706;SDS011;7819;48.046;7.642;2022-09-28T17:47:27;4.10;;;3.80;;
2706;SDS011;7819;48.046;7.642;2022-09-28T17:49:53;4.97;;;4.57;;
2706;SDS011;7819;48.046;7.642;2022-09-28T17:52:18;5.50;;;5.10;;
2706;SDS011;7819;48.046;7.642;2022-09-28T17:54:43;6.90;;;6.28;;
2706;SDS011;7819;48.046;7.642;2022-09-28T17:57:08;5.03;;;4.53;;
2706;SDS011;7819;48.046;7.642;2022-09-28T17:59:34;5.47;;;5.00;;
2706;SDS011;7819;48.046;7.642;2022-09-28T18:01:59;6.67;;;5.70;;
2706;SDS011;7819;48.046;7.642;2022-09-28T18:04:24;7.30;;;6.60;;
2706;SDS011;7819;48.046;7.642;2022-09-28T18:06:49;5.00;;;4.50;;
2706;SDS011;7819;48.046;7.642;2022-09-28T18:09:15;4.13;;;3.73;;